createdAt,value
2023-01-18T00:01:59.607Z,15.96
2023-01-18T00:04:27.647Z,15.97
2023-01-18T00:06:57.345Z,15.92
2023-01-18T00:09:25.402Z,15.93
2023-01-18T00:11:54.722Z,16.01
2023-01-18T00:14:22.758Z,16.02
2023-01-18T00:16:50.704Z,15.97
2023-01-18T00:19:18.714Z,15.95
2023-01-18T00:21:46.629Z,15.90
2023-01-18T00:24:16.005Z,15.93
2023-01-18T00:26:44.634Z,15.85
2023-01-18T00:29:14.209Z,15.74
2023-01-18T00:31:42.193Z,15.85
2023-01-18T00:34:10.198Z,15.80
2023-01-18T00:36:38.160Z,15.75
2023-01-18T00:39:06.135Z,15.76
2023-01-18T00:41:34.097Z,15.75
2023-01-18T00:44:01.460Z,15.82
2023-01-18T00:46:30.833Z,15.79
2023-01-18T00:48:59.048Z,15.74
2023-01-18T00:51:27.001Z,15.77
2023-01-18T00:53:54.934Z,15.70
2023-01-18T00:56:23.307Z,15.72
2023-01-18T00:58:51.291Z,15.67
2023-01-18T01:01:19.305Z,15.71
2023-01-18T01:04:06.053Z,15.64
2023-01-18T01:06:47.459Z,15.65
2023-01-18T01:09:17.178Z,15.67
2023-01-18T01:12:05.331Z,15.66
2023-01-18T01:14:51.110Z,15.66
2023-01-18T01:17:36.503Z,15.66
2023-01-18T01:20:23.921Z,15.68
2023-01-18T01:23:09.162Z,15.56
2023-01-18T01:25:55.009Z,15.56
2023-01-18T01:28:23.078Z,15.61
2023-01-18T01:30:51.067Z,15.66
2023-01-18T01:33:19.420Z,15.60
2023-01-18T01:35:48.728Z,15.53
2023-01-18T01:38:16.699Z,15.53
2023-01-18T01:40:44.682Z,15.57
2023-01-18T01:43:13.952Z,15.53
2023-01-18T01:45:41.938Z,15.61
2023-01-18T01:48:09.918Z,15.55
2023-01-18T01:50:38.614Z,15.63
2023-01-18T01:53:07.978Z,15.64
2023-01-18T01:55:36.909Z,15.61
2023-01-18T01:58:06.203Z,15.48
2023-01-18T02:00:34.142Z,15.52
2023-01-18T02:03:03.003Z,15.41
2023-01-18T02:05:31.184Z,15.30
2023-01-18T02:08:00.374Z,15.28
2023-01-18T02:10:29.792Z,15.30
2023-01-18T02:12:58.074Z,15.29
2023-01-18T02:15:28.661Z,15.33
2023-01-18T02:18:13.927Z,15.24
2023-01-18T02:21:16.260Z,15.20
2023-01-18T02:24:07.283Z,15.13
2023-01-18T02:26:50.455Z,15.23
2023-01-18T02:29:19.899Z,15.35
2023-01-18T02:31:54.970Z,15.24
2023-01-18T02:34:26.710Z,15.36
2023-01-18T02:36:57.958Z,15.34
2023-01-18T02:39:31.632Z,15.43
2023-01-18T02:42:19.917Z,15.46
2023-01-18T02:45:06.577Z,15.44
2023-01-18T02:47:34.527Z,15.54
2023-01-18T02:50:03.638Z,15.54
2023-01-18T02:52:41.551Z,15.54
2023-01-18T02:55:11.676Z,15.48
2023-01-18T02:57:39.615Z,15.46
2023-01-18T03:00:10.380Z,15.36
2023-01-18T03:02:38.537Z,15.29
2023-01-18T03:05:07.335Z,15.24
2023-01-18T03:07:36.635Z,15.13
2023-01-18T03:10:08.136Z,15.13
2023-01-18T03:12:47.072Z,15.17
2023-01-18T03:15:20.186Z,15.11
2023-01-18T03:17:51.389Z,15.00
2023-01-18T03:20:25.692Z,15.06
2023-01-18T03:23:14.206Z,14.95
2023-01-18T03:25:44.139Z,14.87
2023-01-18T03:28:32.048Z,14.87
2023-01-18T03:31:19.837Z,14.81
2023-01-18T03:33:49.149Z,14.85
2023-01-18T03:36:20.615Z,14.81
2023-01-18T03:38:49.528Z,14.86
2023-01-18T03:41:17.572Z,14.68
2023-01-18T03:43:45.560Z,14.66
2023-01-18T03:46:15.046Z,14.67
2023-01-18T03:48:43.012Z,14.72
2023-01-18T03:51:14.500Z,14.76
2023-01-18T03:53:44.846Z,14.66
2023-01-18T03:56:15.176Z,14.71
2023-01-18T03:58:43.293Z,14.74
2023-01-18T04:01:11.409Z,14.74
2023-01-18T04:03:40.753Z,14.76
2023-01-18T04:06:08.868Z,14.68
2023-01-18T04:08:36.831Z,14.65
2023-01-18T04:11:04.771Z,14.66
2023-01-18T04:13:32.703Z,14.69
2023-01-18T04:16:00.704Z,14.75
2023-01-18T04:18:28.736Z,14.70
2023-01-18T04:20:58.074Z,14.70
2023-01-18T04:23:26.031Z,14.71
2023-01-18T04:25:53.977Z,14.79
2023-01-18T04:28:27.139Z,14.74
2023-01-18T04:30:55.645Z,14.79
2023-01-18T04:33:24.189Z,14.76
2023-01-18T04:35:54.298Z,14.68
2023-01-18T04:38:23.649Z,14.58
2023-01-18T04:40:51.659Z,14.52
2023-01-18T04:43:19.655Z,14.54
2023-01-18T04:45:54.533Z,14.52
2023-01-18T04:48:22.525Z,14.55
2023-01-18T04:50:50.482Z,14.47
2023-01-18T04:53:18.615Z,14.48
2023-01-18T04:55:47.989Z,14.42
2023-01-18T04:58:16.250Z,14.43
2023-01-18T05:00:44.701Z,14.39
2023-01-18T05:03:12.935Z,14.37
2023-01-18T05:05:41.199Z,14.37
2023-01-18T05:08:09.157Z,14.34
2023-01-18T05:10:37.101Z,14.42
2023-01-18T05:13:06.563Z,14.41
2023-01-18T05:15:35.176Z,14.43
2023-01-18T05:18:03.191Z,14.42
2023-01-18T05:20:31.102Z,14.47
2023-01-18T05:22:59.381Z,14.52
2023-01-18T05:25:27.606Z,14.48
2023-01-18T05:27:55.561Z,14.39
2023-01-18T05:30:24.853Z,14.41
2023-01-18T05:32:52.771Z,14.43
2023-01-18T05:35:20.744Z,14.50
2023-01-18T05:37:48.705Z,14.64
2023-01-18T05:40:16.869Z,14.76
2023-01-18T05:42:44.845Z,14.74
2023-01-18T05:45:13.151Z,14.73
2023-01-18T05:47:42.444Z,14.83
2023-01-18T05:50:11.223Z,14.79
2023-01-18T05:52:39.202Z,14.86
2023-01-18T05:55:07.546Z,14.99
2023-01-18T05:57:35.498Z,15.04
2023-01-18T06:00:05.008Z,15.03
2023-01-18T06:02:32.997Z,15.04
2023-01-18T06:05:02.344Z,15.00
2023-01-18T06:07:30.342Z,15.02
2023-01-18T06:09:59.169Z,15.09
2023-01-18T06:12:27.192Z,15.20
2023-01-18T06:14:55.154Z,15.24
2023-01-18T06:17:23.138Z,15.20
2023-01-18T06:19:51.050Z,15.24
2023-01-18T06:22:20.827Z,15.15
2023-01-18T06:24:48.789Z,15.22
2023-01-18T06:27:16.769Z,15.19
2023-01-18T06:29:44.770Z,15.24
2023-01-18T06:32:12.679Z,15.29
2023-01-18T06:34:40.639Z,15.26
2023-01-18T06:37:08.604Z,15.31
2023-01-18T06:39:39.676Z,15.49
2023-01-18T06:42:07.717Z,15.70
2023-01-18T06:44:35.707Z,15.76
2023-01-18T06:47:03.656Z,15.81
2023-01-18T06:49:31.566Z,15.97
2023-01-18T06:51:59.556Z,16.03
2023-01-18T06:54:27.531Z,16.08
2023-01-18T06:56:56.859Z,16.24
2023-01-18T06:59:24.821Z,16.43
2023-01-18T07:01:54.684Z,16.47
2023-01-18T07:04:22.752Z,16.54
2023-01-18T07:06:50.790Z,16.62
2023-01-18T07:09:18.715Z,16.70
2023-01-18T07:11:46.944Z,16.75
2023-01-18T07:14:16.292Z,16.77
2023-01-18T07:16:44.348Z,16.85
2023-01-18T07:19:12.274Z,16.91
2023-01-18T07:21:40.579Z,16.88
2023-01-18T07:24:08.658Z,16.98
2023-01-18T07:26:36.563Z,17.07
2023-01-18T07:29:04.497Z,17.10
2023-01-18T07:31:33.815Z,17.18
2023-01-18T07:34:01.780Z,17.19
2023-01-18T07:36:29.730Z,17.22
2023-01-18T07:38:57.631Z,17.25
2023-01-18T07:41:26.272Z,17.34
2023-01-18T07:43:54.240Z,17.35
2023-01-18T07:46:22.457Z,17.36
2023-01-18T07:48:52.591Z,17.47
2023-01-18T07:51:21.632Z,17.47
2023-01-18T07:53:49.794Z,17.58
2023-01-18T07:56:18.509Z,17.66
2023-01-18T07:58:46.562Z,17.73
2023-01-18T08:01:15.678Z,17.78
2023-01-18T08:03:43.814Z,17.84
2023-01-18T08:06:13.919Z,17.88
2023-01-18T08:08:41.955Z,17.93
2023-01-18T08:11:10.037Z,18.01
2023-01-18T08:13:37.999Z,18.08
2023-01-18T08:16:07.182Z,18.05
2023-01-18T08:18:35.135Z,18.31
2023-01-18T08:21:03.147Z,18.36
2023-01-18T08:23:32.471Z,18.40
2023-01-18T08:26:03.611Z,18.35
2023-01-18T08:28:31.548Z,18.37
2023-01-18T08:31:07.271Z,18.43
2023-01-18T08:33:38.548Z,18.53
2023-01-18T08:36:07.333Z,18.55
2023-01-18T08:38:36.662Z,18.63
2023-01-18T08:41:04.680Z,18.74
2023-01-18T08:43:32.646Z,18.91
2023-01-18T08:46:00.738Z,19.04
2023-01-18T08:48:28.716Z,19.15
2023-01-18T08:51:00.534Z,19.28
2023-01-18T08:53:28.587Z,19.30
2023-01-18T08:55:58.085Z,19.30
2023-01-18T08:58:26.154Z,19.38
2023-01-18T09:00:54.351Z,19.48
2023-01-18T09:03:22.600Z,19.53
2023-01-18T09:05:50.570Z,19.44
2023-01-18T09:08:18.631Z,19.22
2023-01-18T09:10:46.620Z,19.38
2023-01-18T09:13:15.959Z,19.73
2023-01-18T09:15:45.609Z,19.81
2023-01-18T09:18:13.592Z,19.72
2023-01-18T09:20:43.581Z,19.64
2023-01-18T09:23:11.568Z,19.79
2023-01-18T09:25:41.041Z,19.93
2023-01-18T09:28:09.086Z,20.21
2023-01-18T09:30:38.426Z,20.41
2023-01-18T09:33:06.410Z,20.54
2023-01-18T09:35:34.408Z,20.43
2023-01-18T09:38:02.398Z,20.87
2023-01-18T09:40:37.275Z,21.32
2023-01-18T09:43:05.243Z,21.92
2023-01-18T09:45:33.788Z,22.38
2023-01-18T09:48:04.973Z,22.44
2023-01-18T09:50:34.082Z,22.48
2023-01-18T09:53:08.100Z,22.63
2023-01-18T09:55:43.662Z,23.06
2023-01-18T09:58:15.567Z,23.04
2023-01-18T10:00:45.912Z,23.21
2023-01-18T10:03:19.505Z,23.20
2023-01-18T10:05:52.320Z,22.81
2023-01-18T10:08:22.832Z,22.73
2023-01-18T10:10:53.381Z,22.66
2023-01-18T10:13:33.832Z,22.74
2023-01-18T10:16:02.594Z,22.97
2023-01-18T10:18:31.953Z,23.23
2023-01-18T10:21:01.503Z,23.33
2023-01-18T10:23:31.399Z,23.12
2023-01-18T10:26:02.129Z,23.02
2023-01-18T10:28:35.889Z,23.28
2023-01-18T10:31:11.246Z,23.46
2023-01-18T10:33:42.204Z,23.60
2023-01-18T10:36:13.606Z,23.66
2023-01-18T10:38:41.981Z,24.02
2023-01-18T10:41:17.070Z,23.88
2023-01-18T10:43:45.066Z,23.62
2023-01-18T10:46:14.851Z,23.48
2023-01-18T10:48:46.294Z,23.53
2023-01-18T10:51:26.193Z,23.60
2023-01-18T10:53:54.194Z,23.74
2023-01-18T10:56:24.309Z,23.49
2023-01-18T10:58:57.726Z,23.76
2023-01-18T11:01:27.450Z,23.55
2023-01-18T11:03:58.221Z,23.66
2023-01-18T11:06:26.406Z,24.05
2023-01-18T11:08:54.772Z,24.38
2023-01-18T11:11:51.126Z,24.58
2023-01-18T11:14:26.275Z,24.74
2023-01-18T11:17:01.231Z,24.71
2023-01-18T11:19:30.687Z,24.72
2023-01-18T11:21:58.673Z,25.12
2023-01-18T11:24:28.601Z,24.74
2023-01-18T11:26:59.079Z,25.01
2023-01-18T11:29:28.945Z,24.93
2023-01-18T11:31:57.150Z,24.74
2023-01-18T11:34:28.820Z,24.63
2023-01-18T11:37:00.181Z,24.43
2023-01-18T11:39:30.232Z,24.21
2023-01-18T11:42:23.839Z,24.28
2023-01-18T11:45:00.315Z,24.42
2023-01-18T11:47:32.613Z,24.33
2023-01-18T11:50:13.392Z,24.41
2023-01-18T11:52:48.880Z,23.88
2023-01-18T11:55:22.235Z,23.59
2023-01-18T11:57:50.382Z,23.32
2023-01-18T12:00:19.047Z,22.94
2023-01-18T12:02:56.256Z,22.86
2023-01-18T12:05:44.249Z,22.83
2023-01-18T12:08:25.243Z,22.73
2023-01-18T12:10:59.264Z,22.23
2023-01-18T12:13:36.119Z,21.90
2023-01-18T12:16:10.861Z,21.75
2023-01-18T12:18:50.841Z,21.63
2023-01-18T12:21:21.634Z,21.48
2023-01-18T12:24:15.318Z,21.25
2023-01-18T12:26:48.592Z,21.22
2023-01-18T12:29:33.289Z,21.05
2023-01-18T12:32:07.523Z,20.89
2023-01-18T12:34:39.405Z,20.98
2023-01-18T12:37:23.939Z,20.96
2023-01-18T12:40:03.895Z,20.94
2023-01-18T12:42:38.928Z,20.87
2023-01-18T12:45:12.447Z,20.84
2023-01-18T12:47:41.351Z,20.96
2023-01-18T12:50:16.645Z,20.94
2023-01-18T12:52:47.422Z,20.88
2023-01-18T12:55:21.195Z,21.00
2023-01-18T12:57:50.675Z,20.96
2023-01-18T13:00:22.298Z,20.94
2023-01-18T13:02:51.822Z,20.94
2023-01-18T13:05:20.941Z,20.88
2023-01-18T13:07:50.946Z,20.87
2023-01-18T13:10:22.661Z,20.73
2023-01-18T13:12:50.750Z,20.69
2023-01-18T13:15:24.529Z,20.62
2023-01-18T13:17:54.940Z,20.49
2023-01-18T13:20:24.093Z,20.27
2023-01-18T13:22:57.736Z,20.18
2023-01-18T13:25:41.791Z,20.18
2023-01-18T13:28:17.977Z,19.96
2023-01-18T13:30:56.553Z,19.90
2023-01-18T13:33:25.499Z,19.89
2023-01-18T13:35:55.440Z,19.81
2023-01-18T13:38:40.156Z,19.71
2023-01-18T13:41:11.687Z,19.60
2023-01-18T13:44:03.789Z,19.62
2023-01-18T13:46:33.172Z,19.62
2023-01-18T13:49:02.473Z,19.53
2023-01-18T13:51:57.369Z,19.49
2023-01-18T13:55:03.658Z,19.47
2023-01-18T13:57:34.316Z,19.40
2023-01-18T14:00:02.526Z,19.28
2023-01-18T14:02:34.082Z,19.30
2023-01-18T14:05:04.684Z,19.24
2023-01-18T14:07:38.670Z,19.12
2023-01-18T14:10:08.312Z,19.08
2023-01-18T14:12:59.279Z,18.98
2023-01-18T14:15:37.916Z,18.88
2023-01-18T14:18:05.984Z,18.87
2023-01-18T14:21:00.205Z,18.69
2023-01-18T14:23:53.616Z,18.63
2023-01-18T14:26:22.469Z,18.58
2023-01-18T14:28:53.071Z,18.54
2023-01-18T14:31:22.263Z,18.46
2023-01-18T14:33:51.158Z,18.37
2023-01-18T14:36:21.128Z,18.27
2023-01-18T14:42:35.861Z,17.94
2023-01-18T14:45:04.009Z,17.96
2023-01-18T14:47:33.689Z,17.82
2023-01-18T14:50:03.302Z,17.81
2023-01-18T14:52:33.173Z,17.79
2023-01-18T14:55:01.232Z,17.76
2023-01-18T14:57:29.165Z,17.75
2023-01-18T15:00:08.613Z,17.72
2023-01-18T15:02:38.823Z,17.68
2023-01-18T15:05:13.486Z,17.61
2023-01-18T15:07:41.452Z,17.62
2023-01-18T15:10:10.106Z,17.60
2023-01-18T15:12:38.004Z,17.54
2023-01-18T15:15:08.972Z,17.60
2023-01-18T15:17:37.016Z,17.52
2023-01-18T15:20:06.403Z,17.42
2023-01-18T15:22:35.963Z,17.40
2023-01-18T15:25:04.008Z,17.38
2023-01-18T15:27:32.956Z,17.42
2023-01-18T15:30:02.027Z,17.37
2023-01-18T15:32:32.693Z,17.26
2023-01-18T15:35:00.679Z,17.23
2023-01-18T15:37:30.334Z,17.25
2023-01-18T15:40:00.320Z,17.17
2023-01-18T15:42:30.866Z,17.14
2023-01-18T17:27:01.873Z,15.84
2023-01-18T17:29:29.830Z,16.00
2023-01-18T17:31:58.011Z,16.12
2023-01-18T17:34:28.501Z,16.12
2023-01-18T17:36:58.405Z,16.17
2023-01-18T17:39:37.428Z,16.14
2023-01-18T17:42:25.877Z,16.16
2023-01-18T17:45:02.741Z,16.15
2023-01-18T17:47:31.023Z,16.21
2023-01-18T17:49:59.009Z,16.19
2023-01-18T17:52:27.359Z,16.10
2023-01-18T17:54:55.291Z,16.13
2023-01-18T17:57:24.660Z,16.16
2023-01-18T17:59:55.661Z,16.20
2023-01-18T18:02:23.965Z,16.24
2023-01-18T18:04:52.228Z,16.15
2023-01-18T18:07:20.156Z,16.19
2023-01-18T18:09:48.179Z,16.14
2023-01-18T18:12:16.172Z,16.03
2023-01-18T18:14:45.463Z,16.08
2023-01-18T18:17:13.472Z,16.11
2023-01-18T18:19:41.420Z,16.13
2023-01-18T18:22:09.363Z,16.13
2023-01-18T18:24:37.343Z,16.10
2023-01-18T18:27:05.499Z,16.13
2023-01-18T18:29:33.488Z,16.08
2023-01-18T18:32:05.366Z,16.14
2023-01-18T18:34:33.354Z,16.07
2023-01-18T18:37:01.305Z,16.08
2023-01-18T18:39:29.271Z,16.12
2023-01-18T18:41:57.276Z,16.15
2023-01-18T18:44:25.215Z,16.22
2023-01-18T18:46:53.297Z,16.17
2023-01-18T18:49:22.696Z,16.13
2023-01-18T18:51:50.658Z,16.09
2023-01-18T18:54:19.053Z,16.01
2023-01-18T18:56:47.076Z,16.04
2023-01-18T18:59:15.041Z,15.95
2023-01-18T19:01:43.019Z,15.96
2023-01-18T19:04:10.936Z,15.85
2023-01-18T19:06:40.342Z,15.82
2023-01-18T19:09:08.294Z,15.73
2023-01-18T19:11:39.469Z,15.72
2023-01-18T19:14:07.522Z,15.73
2023-01-18T19:16:36.871Z,15.75
2023-01-18T19:19:04.918Z,15.70
2023-01-18T19:21:33.546Z,15.66
2023-01-18T19:24:02.900Z,15.76
2023-01-18T19:26:30.848Z,15.76
2023-01-18T19:28:58.771Z,15.61
2023-01-18T19:31:26.737Z,15.61
2023-01-18T19:33:56.373Z,15.56
2023-01-18T19:36:24.476Z,15.61
2023-01-18T19:38:57.808Z,15.57
2023-01-18T19:41:30.559Z,15.65
2023-01-18T19:43:58.529Z,15.66
2023-01-18T19:46:26.670Z,15.75
2023-01-18T19:48:57.615Z,15.71
2023-01-18T19:51:25.639Z,15.75
2023-01-18T19:53:54.475Z,15.75
2023-01-18T19:56:22.478Z,15.78
2023-01-18T19:58:51.906Z,15.79
2023-01-18T20:01:34.679Z,15.78
2023-01-18T20:04:04.411Z,15.79
2023-01-18T20:06:32.404Z,15.70
2023-01-18T20:09:00.358Z,15.69
2023-01-18T20:11:28.409Z,15.69
2023-01-18T20:13:57.747Z,15.75
2023-01-18T20:16:25.716Z,15.80
2023-01-18T20:18:54.476Z,15.86
2023-01-18T20:21:22.465Z,15.80
2023-01-18T20:23:50.446Z,15.71
2023-01-18T20:26:34.912Z,15.70
2023-01-18T20:29:06.834Z,15.78
2023-01-18T20:31:36.402Z,15.72
2023-01-18T20:34:04.466Z,15.66
2023-01-18T20:36:34.936Z,15.66
2023-01-18T20:39:03.538Z,15.59
2023-01-18T20:41:31.499Z,15.61
2023-01-18T20:43:59.470Z,15.71
2023-01-18T20:46:28.845Z,15.68
2023-01-18T20:48:56.824Z,15.70
2023-01-18T20:51:24.785Z,15.71
2023-01-18T20:53:52.793Z,15.66
2023-01-18T20:56:29.151Z,15.66
2023-01-18T20:58:57.964Z,15.69
2023-01-18T21:01:31.604Z,15.68
2023-01-18T21:04:01.463Z,15.59
2023-01-18T21:06:29.469Z,15.58
2023-01-18T21:08:57.665Z,15.61
2023-01-18T21:11:26.879Z,15.61
2023-01-18T21:13:55.003Z,15.55
2023-01-18T21:16:23.568Z,15.57
2023-01-18T21:18:52.743Z,15.66
2023-01-18T21:21:22.116Z,15.63
2023-01-18T21:23:50.085Z,15.66
2023-01-18T21:26:18.210Z,15.69
2023-01-18T21:28:46.149Z,15.68
2023-01-18T21:31:14.086Z,15.63
2023-01-18T21:33:42.518Z,15.57
2023-01-18T21:36:12.666Z,15.49
2023-01-18T21:38:42.004Z,15.48
2023-01-18T21:41:27.102Z,15.44
2023-01-18T21:44:12.882Z,15.39
2023-01-18T21:46:44.331Z,15.31
2023-01-18T21:49:47.143Z,15.22
2023-01-18T21:52:37.863Z,15.29
2023-01-18T21:55:07.557Z,15.38
2023-01-18T21:57:36.649Z,15.52
2023-01-18T22:00:05.024Z,15.54
2023-01-18T22:02:33.653Z,15.52
2023-01-18T22:05:03.410Z,15.46
2023-01-18T22:07:32.289Z,15.54
2023-01-18T22:10:08.588Z,15.52
2023-01-18T22:12:39.112Z,15.56
2023-01-18T22:15:07.903Z,15.48
2023-01-18T22:17:35.879Z,15.57
2023-01-18T22:20:04.624Z,15.50
2023-01-18T22:22:32.608Z,15.48
2023-01-18T22:25:02.319Z,15.47
2023-01-18T22:27:30.401Z,15.44
2023-01-18T22:30:00.162Z,15.43
2023-01-18T22:32:28.150Z,15.47
2023-01-18T22:34:56.083Z,15.42
2023-01-18T22:37:25.940Z,15.33
2023-01-18T22:39:53.911Z,15.37
2023-01-18T22:42:21.848Z,15.36
2023-01-18T22:44:49.814Z,15.37
2023-01-18T22:47:19.193Z,15.33
2023-01-18T22:49:47.108Z,15.34
2023-01-18T22:52:15.023Z,15.34
2023-01-18T22:54:42.935Z,15.29
2023-01-18T22:57:10.850Z,15.35
2023-01-18T22:59:38.820Z,15.23
2023-01-18T23:02:06.750Z,15.35
2023-01-18T23:04:36.056Z,15.38
2023-01-18T23:07:04.048Z,15.34
2023-01-18T23:09:32.007Z,15.47
2023-01-18T23:11:59.983Z,15.49
2023-01-18T23:14:45.194Z,15.47
2023-01-18T23:17:31.496Z,15.50
2023-01-18T23:20:00.790Z,15.49
2023-01-18T23:22:28.792Z,15.54
2023-01-18T23:24:56.716Z,15.45
2023-01-18T23:27:24.688Z,15.44
2023-01-18T23:29:56.733Z,15.46
2023-01-18T23:32:27.300Z,15.36
2023-01-18T23:34:55.503Z,15.41
2023-01-18T23:37:24.992Z,15.38
2023-01-18T23:40:10.066Z,15.46
2023-01-18T23:42:55.445Z,15.40
2023-01-18T23:45:40.456Z,15.50
2023-01-18T23:48:26.765Z,15.50
2023-01-18T23:51:12.254Z,15.58
2023-01-18T23:53:58.787Z,15.70
2023-01-18T23:56:27.340Z,15.67
2023-01-18T23:58:56.494Z,15.68
